Check out our new PWSWeather beta!
PWSweather.com
Personal Weather Stations
Station Observations
PENICUIKWS
PenicuikGB

PenicuikGB

Lat: 55.830932, Lon: -3.224533000000065

Elevation: 166

Station Type: Fine Offset

http://weather.penicuik.org

High Low Average
Temperature 81.7°F27.6°C 60.1°F15.6°C 69.9°F21.1°C
Dew Point 68.3°F20.2°C 58.7°F14.8°C 61.2°F16.2°C
Winds 6.8 mph 10.9 kmh Calm Calm 2.0 mph SSW3.2 kmh SSW
Wind Gusts 12.1 mph19.5 kmh -- 4.0 mph6.4 kmh
Humidity 96% 50% 76%
Pressure 29.96 in1014.6 mb 29.89 in1012.2 mb -
Precipitation 0.19 in4.8 mm - -
Hour Temp Dew Point Humidity Winds Wind Gusts Pressure Precip Precip Rate Daily Precip Total
12:00 AM 63.9°F17.7°C 61.8°F16.6°C 93% 0.1 mph NW0.2 kmh NW 0.7 mph1.1 kmh 29.96 in1014.6 mb 0.00 in0.0 mm 0.00 in0.0 mm 0.00 in0.0 mm
12:15 AM 63.3°F17.4°C 61.3°F16.3°C 93% 0.5 mph WNW0.8 kmh WNW 2.2 mph3.5 kmh 29.96 in1014.6 mb 0.00 in0.0 mm 0.00 in0.0 mm 0.00 in0.0 mm
12:30 AM 63.1°F17.3°C 61.1°F16.2°C 93% 0.1 mph W0.2 kmh W 0.7 mph1.1 kmh 29.96 in1014.6 mb 0.00 in0.0 mm 0.00 in0.0 mm 0.00 in0.0 mm
12:45 AM 63.1°F17.3°C 61.1°F16.2°C 93% 0.3 mph WNW0.5 kmh WNW 1.6 mph2.6 kmh 29.95 in1014.2 mb 0.00 in0.0 mm 0.00 in0.0 mm 0.00 in0.0 mm
01:00 AM 63.5°F17.5°C 61.5°F16.4°C 93% 0.2 mph N0.3 kmh N 0.7 mph1.1 kmh 29.95 in1014.2 mb 0.00 in0.0 mm 0.00 in0.0 mm 0.00 in0.0 mm
01:15 AM 63.9°F17.7°C 61.8°F16.6°C 93% 0.2 mph NW0.3 kmh NW 0.7 mph1.1 kmh 29.96 in1014.6 mb 0.00 in0.0 mm 0.00 in0.0 mm 0.00 in0.0 mm
01:30 AM 63.9°F17.7°C 61.8°F16.6°C 93% Calm Calm -- 29.95 in1014.2 mb 0.00 in0.0 mm 0.00 in0.0 mm 0.00 in0.0 mm
01:45 AM 64.0°F17.8°C 62.0°F16.7°C 93% 0.1 mph NE0.2 kmh NE 0.7 mph1.1 kmh 29.94 in1013.9 mb 0.00 in0.0 mm 0.00 in0.0 mm 0.00 in0.0 mm
02:00 AM 64.2°F17.9°C 62.2°F16.8°C 93% 0.3 mph NW0.5 kmh NW 2.2 mph3.5 kmh 29.94 in1013.9 mb 0.00 in0.0 mm 0.00 in0.0 mm 0.00 in0.0 mm
02:15 AM 64.4°F18.0°C 63.0°F17.2°C 95% 0.4 mph NW0.6 kmh NW 1.6 mph2.6 kmh 29.94 in1013.9 mb 0.00 in0.0 mm 0.00 in0.0 mm 0.00 in0.0 mm
02:30 AM 64.6°F18.1°C 62.8°F17.1°C 94% 0.6 mph S1.0 kmh S 2.2 mph3.5 kmh 29.95 in1014.2 mb 0.00 in0.0 mm 0.00 in0.0 mm 0.00 in0.0 mm
02:45 AM 64.6°F18.1°C 62.8°F17.1°C 94% 0.6 mph NW1.0 kmh NW 1.6 mph2.6 kmh 29.94 in1013.9 mb 0.00 in0.0 mm 0.00 in0.0 mm 0.00 in0.0 mm
03:00 AM 63.9°F17.7°C 61.5°F16.4°C 92% 1.3 mph NW2.1 kmh NW 2.2 mph3.5 kmh 29.94 in1013.9 mb 0.00 in0.0 mm 0.00 in0.0 mm 0.00 in0.0 mm
03:15 AM 63.3°F17.4°C 61.0°F16.1°C 92% 0.3 mph SE0.5 kmh SE 3.1 mph5.0 kmh 29.94 in1013.9 mb 0.00 in0.0 mm 0.00 in0.0 mm 0.00 in0.0 mm
03:30 AM 62.8°F17.1°C 60.4°F15.8°C 92% 0.9 mph SW1.4 kmh SW 1.6 mph2.6 kmh 29.93 in1013.5 mb 0.00 in0.0 mm 0.00 in0.0 mm 0.00 in0.0 mm
03:45 AM 62.4°F16.9°C 60.4°F15.8°C 93% 0.2 mph WNW0.3 kmh WNW 1.6 mph2.6 kmh 29.94 in1013.9 mb 0.00 in0.0 mm 0.00 in0.0 mm 0.00 in0.0 mm
04:00 AM 61.9°F16.6°C 60.2°F15.7°C 94% Calm Calm -- 29.94 in1013.9 mb 0.00 in0.0 mm 0.00 in0.0 mm 0.00 in0.0 mm
04:15 AM 61.5°F16.4°C 59.8°F15.4°C 94% Calm Calm -- 29.93 in1013.5 mb 0.00 in0.0 mm 0.00 in0.0 mm 0.00 in0.0 mm
04:30 AM 61.2°F16.2°C 59.4°F15.2°C 94% Calm Calm -- 29.93 in1013.5 mb 0.00 in0.0 mm 0.00 in0.0 mm 0.00 in0.0 mm
04:45 AM 61.2°F16.2°C 59.4°F15.2°C 94% 0.5 mph S0.8 kmh S 1.6 mph2.6 kmh 29.93 in1013.5 mb 0.00 in0.0 mm 0.00 in0.0 mm 0.00 in0.0 mm
05:00 AM 61.5°F16.4°C 60.1°F15.6°C 95% 0.1 mph SW0.2 kmh SW 0.7 mph1.1 kmh 29.93 in1013.5 mb 0.00 in0.0 mm 0.00 in0.0 mm 0.00 in0.0 mm
05:15 AM 62.4°F16.9°C 61.0°F16.1°C 95% 0.2 mph SW0.3 kmh SW 0.7 mph1.1 kmh 29.93 in1013.5 mb 0.00 in0.0 mm 0.00 in0.0 mm 0.00 in0.0 mm
05:30 AM 63.3°F17.4°C 61.6°F16.4°C 94% 0.6 mph WNW1.0 kmh WNW 1.6 mph2.6 kmh 29.93 in1013.5 mb 0.00 in0.0 mm 0.00 in0.0 mm 0.00 in0.0 mm
05:45 AM 64.8°F18.2°C 63.6°F17.6°C 96% 0.1 mph NW0.2 kmh NW 0.7 mph1.1 kmh 29.94 in1013.9 mb 0.00 in0.0 mm 0.00 in0.0 mm 0.00 in0.0 mm
06:00 AM 71.1°F21.7°C 68.3°F20.2°C 91% 1.0 mph W1.6 kmh W 3.1 mph5.0 kmh 29.93 in1013.5 mb 0.00 in0.0 mm 0.00 in0.0 mm 0.00 in0.0 mm
06:15 AM 72.9°F22.7°C 63.3°F17.4°C 72% 1.4 mph SE2.3 kmh SE 3.1 mph5.0 kmh 29.94 in1013.9 mb 0.00 in0.0 mm 0.00 in0.0 mm 0.00 in0.0 mm
06:30 AM 72.5°F22.5°C 62.2°F16.8°C 70% 2.0 mph NW3.2 kmh NW 4.5 mph7.2 kmh 29.94 in1013.9 mb 0.00 in0.0 mm 0.00 in0.0 mm 0.00 in0.0 mm
06:45 AM 77.5°F25.3°C 64.0°F17.8°C 63% 2.3 mph SSE3.7 kmh SSE 4.5 mph7.2 kmh 29.93 in1013.5 mb 0.00 in0.0 mm 0.00 in0.0 mm 0.00 in0.0 mm
07:00 AM 72.9°F22.7°C 61.3°F16.3°C 67% 2.5 mph WSW4.0 kmh WSW 3.8 mph6.1 kmh 29.94 in1013.9 mb 0.00 in0.0 mm 0.00 in0.0 mm 0.00 in0.0 mm
07:15 AM 70.9°F21.6°C 62.2°F16.8°C 74% 1.6 mph SW2.6 kmh SW 3.1 mph5.0 kmh 29.93 in1013.5 mb 0.00 in0.0 mm 0.00 in0.0 mm 0.00 in0.0 mm
07:30 AM 69.8°F21.0°C 61.9°F16.6°C 76% 2.3 mph NNW3.7 kmh NNW 3.1 mph5.0 kmh 29.93 in1013.5 mb 0.00 in0.0 mm 0.00 in0.0 mm 0.00 in0.0 mm
07:45 AM 70.9°F21.6°C 61.8°F16.6°C 73% 2.5 mph S4.0 kmh S 4.5 mph7.2 kmh 29.93 in1013.5 mb 0.00 in0.0 mm 0.00 in0.0 mm 0.00 in0.0 mm
08:00 AM 72.3°F22.4°C 62.8°F17.1°C 72% 2.4 mph SSW3.9 kmh SSW 3.8 mph6.1 kmh 29.93 in1013.5 mb 0.00 in0.0 mm 0.00 in0.0 mm 0.00 in0.0 mm
08:15 AM 72.5°F22.5°C 61.4°F16.3°C 68% 3.9 mph WSW6.3 kmh WSW 5.4 mph8.7 kmh 29.93 in1013.5 mb 0.00 in0.0 mm 0.00 in0.0 mm 0.00 in0.0 mm
08:30 AM 75.6°F24.2°C 62.6°F17.0°C 64% 3.5 mph WNW5.6 kmh WNW 6.0 mph9.7 kmh 29.93 in1013.5 mb 0.00 in0.0 mm 0.00 in0.0 mm 0.00 in0.0 mm
08:45 AM 72.7°F22.6°C 59.8°F15.4°C 64% 3.6 mph N5.8 kmh N 6.0 mph9.7 kmh 29.93 in1013.5 mb 0.00 in0.0 mm 0.00 in0.0 mm 0.00 in0.0 mm
09:00 AM 73.4°F23.0°C 61.0°F16.1°C 65% 4.6 mph NNE7.4 kmh NNE 6.0 mph9.7 kmh 29.94 in1013.9 mb 0.00 in0.0 mm 0.00 in0.0 mm 0.00 in0.0 mm
09:15 AM 74.8°F23.8°C 61.0°F16.1°C 62% 5.0 mph SW8.0 kmh SW 9.8 mph15.8 kmh 29.93 in1013.5 mb 0.00 in0.0 mm 0.00 in0.0 mm 0.00 in0.0 mm
09:30 AM 72.5°F22.5°C 59.2°F15.1°C 63% 4.3 mph W6.9 kmh W 7.6 mph12.2 kmh 29.93 in1013.5 mb 0.00 in0.0 mm 0.00 in0.0 mm 0.00 in0.0 mm
09:45 AM 73.4°F23.0°C 61.4°F16.3°C 66% 3.7 mph SSE6.0 kmh SSE 6.9 mph11.1 kmh 29.93 in1013.5 mb 0.00 in0.0 mm 0.00 in0.0 mm 0.00 in0.0 mm
10:00 AM 74.5°F23.6°C 61.1°F16.2°C 63% 2.7 mph SSW4.3 kmh SSW 4.5 mph7.2 kmh 29.93 in1013.5 mb 0.00 in0.0 mm 0.00 in0.0 mm 0.00 in0.0 mm
10:15 AM 73.2°F22.9°C 59.9°F15.5°C 63% 2.5 mph SW4.0 kmh SW 4.5 mph7.2 kmh 29.93 in1013.5 mb 0.00 in0.0 mm 0.00 in0.0 mm 0.00 in0.0 mm
10:30 AM 72.5°F22.5°C 59.2°F15.1°C 63% 3.3 mph E5.3 kmh E 5.4 mph8.7 kmh 29.94 in1013.9 mb 0.00 in0.0 mm 0.00 in0.0 mm 0.00 in0.0 mm
10:45 AM 72.7°F22.6°C 59.8°F15.4°C 64% 3.7 mph WSW6.0 kmh WSW 4.5 mph7.2 kmh 29.93 in1013.5 mb 0.00 in0.0 mm 0.00 in0.0 mm 0.00 in0.0 mm
11:00 AM 77.5°F25.3°C 63.1°F17.3°C 61% 4.4 mph SE7.1 kmh SE 6.0 mph9.7 kmh 29.93 in1013.5 mb 0.00 in0.0 mm 0.00 in0.0 mm 0.00 in0.0 mm
11:15 AM 76.6°F24.8°C 62.2°F16.8°C 61% 2.5 mph NNW4.0 kmh NNW 3.8 mph6.1 kmh 29.94 in1013.9 mb 0.00 in0.0 mm 0.00 in0.0 mm 0.00 in0.0 mm
11:30 AM 77.4°F25.2°C 61.5°F16.4°C 58% 3.4 mph SSW5.5 kmh SSW 4.5 mph7.2 kmh 29.93 in1013.5 mb 0.00 in0.0 mm 0.00 in0.0 mm 0.00 in0.0 mm
11:45 AM 77.0°F25.0°C 60.1°F15.6°C 56% 4.8 mph NW7.7 kmh NW 8.3 mph13.4 kmh 29.93 in1013.5 mb 0.00 in0.0 mm 0.00 in0.0 mm 0.00 in0.0 mm
12:00 PM 77.2°F25.1°C 62.3°F16.8°C 60% 4.3 mph WNW6.9 kmh WNW 5.4 mph8.7 kmh 29.92 in1013.2 mb 0.00 in0.0 mm 0.00 in0.0 mm 0.00 in0.0 mm
12:15 PM 78.6°F25.9°C 61.7°F16.5°C 56% 4.7 mph SSW7.6 kmh SSW 9.8 mph15.8 kmh 29.92 in1013.2 mb 0.00 in0.0 mm 0.00 in0.0 mm 0.00 in0.0 mm
12:30 PM 77.2°F25.1°C 62.3°F16.8°C 60% 2.3 mph ENE3.7 kmh ENE 3.1 mph5.0 kmh 29.93 in1013.5 mb 0.00 in0.0 mm 0.00 in0.0 mm 0.00 in0.0 mm
12:45 PM 78.1°F25.6°C 63.1°F17.3°C 60% 3.1 mph S5.0 kmh S 3.8 mph6.1 kmh 29.93 in1013.5 mb 0.00 in0.0 mm 0.00 in0.0 mm 0.00 in0.0 mm
01:00 PM 79.2°F26.2°C 61.6°F16.4°C 55% 3.3 mph WSW5.3 kmh WSW 4.5 mph7.2 kmh 29.92 in1013.2 mb 0.00 in0.0 mm 0.00 in0.0 mm 0.00 in0.0 mm
01:15 PM 78.4°F25.8°C 62.0°F16.7°C 57% 3.3 mph S5.3 kmh S 6.0 mph9.7 kmh 29.92 in1013.2 mb 0.00 in0.0 mm 0.00 in0.0 mm 0.00 in0.0 mm
01:30 PM 79.5°F26.4°C 62.0°F16.7°C 55% 3.7 mph S6.0 kmh S 5.4 mph8.7 kmh 29.92 in1013.2 mb 0.00 in0.0 mm 0.00 in0.0 mm 0.00 in0.0 mm
01:45 PM 78.4°F25.8°C 61.5°F16.4°C 56% 3.5 mph SSE5.6 kmh SSE 7.6 mph12.2 kmh 29.92 in1013.2 mb 0.00 in0.0 mm 0.00 in0.0 mm 0.00 in0.0 mm
02:00 PM 80.4°F26.9°C 62.3°F16.8°C 54% 3.1 mph SSE5.0 kmh SSE 4.5 mph7.2 kmh 29.92 in1013.2 mb 0.00 in0.0 mm 0.00 in0.0 mm 0.00 in0.0 mm
02:15 PM 80.6°F27.0°C 61.9°F16.6°C 53% 3.8 mph N6.1 kmh N 4.5 mph7.2 kmh 29.91 in1012.9 mb 0.00 in0.0 mm 0.00 in0.0 mm 0.00 in0.0 mm
02:30 PM 81.7°F27.6°C 61.3°F16.3°C 50% 3.6 mph WSW5.8 kmh WSW 5.4 mph8.7 kmh 29.91 in1012.9 mb 0.00 in0.0 mm 0.00 in0.0 mm 0.00 in0.0 mm
02:45 PM 80.4°F26.9°C 61.8°F16.6°C 53% 5.1 mph S8.2 kmh S 8.3 mph13.4 kmh 29.91 in1012.9 mb 0.00 in0.0 mm 0.00 in0.0 mm 0.00 in0.0 mm
03:00 PM 79.9°F26.6°C 61.8°F16.6°C 54% 3.9 mph SW6.3 kmh SW 8.3 mph13.4 kmh 29.91 in1012.9 mb 0.00 in0.0 mm 0.00 in0.0 mm 0.00 in0.0 mm
03:15 PM 77.9°F25.5°C 62.5°F16.9°C 59% 3.3 mph SSW5.3 kmh SSW 5.4 mph8.7 kmh 29.91 in1012.9 mb 0.00 in0.0 mm 0.00 in0.0 mm 0.00 in0.0 mm
03:30 PM 77.7°F25.4°C 61.3°F16.3°C 57% 3.2 mph NNW5.1 kmh NNW 6.9 mph11.1 kmh 29.91 in1012.9 mb 0.00 in0.0 mm 0.00 in0.0 mm 0.00 in0.0 mm
03:45 PM 78.1°F25.6°C 62.1°F16.7°C 58% 3.8 mph SW6.1 kmh SW 5.4 mph8.7 kmh 29.90 in1012.5 mb 0.00 in0.0 mm 0.00 in0.0 mm 0.00 in0.0 mm
04:00 PM 78.6°F25.9°C 61.7°F16.5°C 56% 3.9 mph SW6.3 kmh SW 9.2 mph14.8 kmh 29.90 in1012.5 mb 0.00 in0.0 mm 0.00 in0.0 mm 0.00 in0.0 mm
04:15 PM 76.8°F24.9°C 61.4°F16.3°C 59% 5.4 mph SSE8.7 kmh SSE 9.2 mph14.8 kmh 29.89 in1012.2 mb 0.00 in0.0 mm 0.00 in0.0 mm 0.00 in0.0 mm
04:30 PM 76.6°F24.8°C 62.2°F16.8°C 61% 6.5 mph SE10.5 kmh SE 8.3 mph13.4 kmh 29.89 in1012.2 mb 0.00 in0.0 mm 0.00 in0.0 mm 0.00 in0.0 mm
04:45 PM 76.3°F24.6°C 62.3°F16.8°C 62% 6.8 mph SW10.9 kmh SW 11.4 mph18.3 kmh 29.90 in1012.5 mb 0.00 in0.0 mm 0.00 in0.0 mm 0.00 in0.0 mm
05:00 PM 75.2°F24.0°C 61.8°F16.6°C 63% 4.9 mph WSW7.9 kmh WSW 8.3 mph13.4 kmh 29.90 in1012.5 mb 0.00 in0.0 mm 0.00 in0.0 mm 0.00 in0.0 mm
05:15 PM 73.9°F23.3°C 61.5°F16.4°C 65% 5.9 mph SW9.5 kmh SW 12.1 mph19.5 kmh 29.89 in1012.2 mb 0.00 in0.0 mm 0.00 in0.0 mm 0.00 in0.0 mm
05:30 PM 72.9°F22.7°C 61.3°F16.3°C 67% 3.7 mph NNE6.0 kmh NNE 5.4 mph8.7 kmh 29.89 in1012.2 mb 0.00 in0.0 mm 0.00 in0.0 mm 0.00 in0.0 mm
05:45 PM 72.7°F22.6°C 61.1°F16.2°C 67% 4.3 mph S6.9 kmh S 10.7 mph17.2 kmh 29.89 in1012.2 mb 0.00 in0.0 mm 0.00 in0.0 mm 0.00 in0.0 mm
06:00 PM 71.2°F21.8°C 61.0°F16.1°C 70% 6.0 mph SSW9.7 kmh SSW 8.3 mph13.4 kmh 29.89 in1012.2 mb 0.00 in0.0 mm 0.00 in0.0 mm 0.00 in0.0 mm
06:15 PM 71.2°F21.8°C 61.0°F16.1°C 70% 4.2 mph E6.8 kmh E 6.9 mph11.1 kmh 29.89 in1012.2 mb 0.00 in0.0 mm 0.00 in0.0 mm 0.00 in0.0 mm
06:30 PM 71.2°F21.8°C 61.4°F16.3°C 71% 3.8 mph SW6.1 kmh SW 6.0 mph9.7 kmh 29.89 in1012.2 mb 0.00 in0.0 mm 0.00 in0.0 mm 0.00 in0.0 mm
06:45 PM 71.2°F21.8°C 61.8°F16.6°C 72% 2.3 mph SW3.7 kmh SW 3.8 mph6.1 kmh 29.89 in1012.2 mb 0.00 in0.0 mm 0.00 in0.0 mm 0.00 in0.0 mm
07:00 PM 70.9°F21.6°C 61.8°F16.6°C 73% 2.8 mph SE4.5 kmh SE 6.0 mph9.7 kmh 29.89 in1012.2 mb 0.00 in0.0 mm 0.00 in0.0 mm 0.00 in0.0 mm
07:15 PM 70.2°F21.2°C 61.1°F16.2°C 73% 4.3 mph S6.9 kmh S 6.9 mph11.1 kmh 29.89 in1012.2 mb 0.00 in0.0 mm 0.00 in0.0 mm 0.00 in0.0 mm
07:30 PM 70.0°F21.1°C 61.3°F16.3°C 74% 1.9 mph NW3.1 kmh NW 5.4 mph8.7 kmh 29.89 in1012.2 mb 0.00 in0.0 mm 0.00 in0.0 mm 0.00 in0.0 mm
07:45 PM 69.4°F20.8°C 61.6°F16.4°C 76% 2.1 mph WNW3.4 kmh WNW 3.1 mph5.0 kmh 29.90 in1012.5 mb 0.00 in0.0 mm 0.00 in0.0 mm 0.00 in0.0 mm
08:00 PM 68.9°F20.5°C 61.0°F16.1°C 76% 1.4 mph SW2.3 kmh SW 3.1 mph5.0 kmh 29.90 in1012.5 mb 0.00 in0.0 mm 0.00 in0.0 mm 0.00 in0.0 mm
08:15 PM 66.9°F19.4°C 59.9°F15.5°C 78% 1.0 mph NW1.6 kmh NW 2.2 mph3.5 kmh 29.91 in1012.9 mb 0.00 in0.0 mm 0.00 in0.0 mm 0.00 in0.0 mm
08:30 PM 65.1°F18.4°C 59.8°F15.4°C 83% 1.2 mph S1.9 kmh S 2.2 mph3.5 kmh 29.91 in1012.9 mb 0.00 in0.0 mm 0.00 in0.0 mm 0.00 in0.0 mm
08:45 PM 64.2°F17.9°C 59.6°F15.3°C 85% 0.8 mph N1.3 kmh N 1.6 mph2.6 kmh 29.92 in1013.2 mb 0.00 in0.0 mm 0.00 in0.0 mm 0.00 in0.0 mm
09:00 PM 63.5°F17.5°C 59.9°F15.5°C 88% 1.3 mph SW2.1 kmh SW 2.2 mph3.5 kmh 29.91 in1012.9 mb 0.00 in0.0 mm 0.00 in0.0 mm 0.00 in0.0 mm
09:15 PM 62.6°F17.0°C 59.0°F15.0°C 88% 0.5 mph S0.8 kmh S 2.2 mph3.5 kmh 29.91 in1012.9 mb 0.01 in0.3 mm 0.04 in1.0 mm 0.01 in0.3 mm
09:30 PM 62.1°F16.7°C 59.4°F15.2°C 91% 0.9 mph E1.4 kmh E 2.2 mph3.5 kmh 29.91 in1012.9 mb 0.09 in2.3 mm 0.32 in8.1 mm 0.09 in2.3 mm
09:45 PM 61.7°F16.5°C 59.4°F15.2°C 92% 0.6 mph NE1.0 kmh NE 3.1 mph5.0 kmh 29.91 in1012.9 mb 0.11 in2.8 mm 0.08 in2.0 mm 0.11 in2.8 mm
10:00 PM 61.5°F16.4°C 59.5°F15.3°C 93% 0.8 mph SW1.3 kmh SW 3.1 mph5.0 kmh 29.91 in1012.9 mb 0.13 in3.3 mm 0.03 in0.8 mm 0.13 in3.3 mm
10:15 PM 61.0°F16.1°C 59.0°F15.0°C 93% 0.4 mph NW0.6 kmh NW 1.6 mph2.6 kmh 29.91 in1012.9 mb 0.14 in3.6 mm 0.04 in1.0 mm 0.15 in3.8 mm
10:30 PM 60.4°F15.8°C 58.7°F14.8°C 94% 0.3 mph S0.5 kmh S 1.6 mph2.6 kmh 29.92 in1013.2 mb 0.08 in2.0 mm 0.00 in0.0 mm 0.18 in4.6 mm
10:45 PM 60.1°F15.6°C 58.7°F14.8°C 95% 0.2 mph S0.3 kmh S 1.6 mph2.6 kmh 29.91 in1012.9 mb 0.08 in2.0 mm 0.00 in0.0 mm 0.19 in4.8 mm
11:00 PM 60.1°F15.6°C 58.7°F14.8°C 95% 0.4 mph S0.6 kmh S 2.2 mph3.5 kmh 29.91 in1012.9 mb 0.06 in1.5 mm 0.00 in0.0 mm 0.14 in3.6 mm
11:15 PM 60.1°F15.6°C 58.7°F14.8°C 95% 0.6 mph ESE1.0 kmh ESE 2.2 mph3.5 kmh 29.91 in1012.9 mb 0.05 in1.3 mm 0.00 in0.0 mm 0.14 in3.6 mm
11:30 PM 60.1°F15.6°C 59.0°F15.0°C 96% Calm Calm -- 29.91 in1012.9 mb 0.02 in0.5 mm 0.00 in0.0 mm 0.14 in3.6 mm
11:45 PM 60.3°F15.7°C 59.1°F15.1°C 96% 0.1 mph NW0.2 kmh NW 0.7 mph1.1 kmh 29.91 in1012.9 mb 0.01 in0.3 mm 0.00 in0.0 mm 0.14 in3.6 mm